createdAt,value
2023-04-30T00:01:14.415Z,2.97
2023-04-30T00:03:41.586Z,3.30
2023-04-30T00:06:08.680Z,3.33
2023-04-30T00:08:35.918Z,3.20
2023-04-30T00:11:02.951Z,3.10
2023-04-30T00:13:30.062Z,3.37
2023-04-30T00:15:57.177Z,3.23
2023-04-30T00:18:24.236Z,3.10
2023-04-30T00:20:53.556Z,3.23
2023-04-30T00:23:20.614Z,3.07
2023-04-30T00:25:47.801Z,3.00
2023-04-30T00:28:14.917Z,3.00
2023-04-30T00:30:42.042Z,3.17
2023-04-30T00:33:09.151Z,3.33
2023-04-30T00:35:36.200Z,3.17
2023-04-30T00:38:03.293Z,3.40
2023-04-30T00:40:30.597Z,3.83
2023-04-30T00:42:57.612Z,3.47
2023-04-30T00:45:24.691Z,4.30
2023-04-30T00:47:51.810Z,4.23
2023-04-30T00:50:18.960Z,4.03
2023-04-30T00:52:46.237Z,3.93
2023-04-30T00:55:13.803Z,3.37
2023-04-30T00:57:41.164Z,4.20
2023-04-30T01:00:12.202Z,4.50
2023-04-30T01:02:39.705Z,3.97
2023-04-30T01:05:08.001Z,4.10
2023-04-30T01:07:36.523Z,3.63
2023-04-30T01:10:03.748Z,3.60
2023-04-30T01:12:45.336Z,3.13
2023-04-30T01:15:29.296Z,3.57
2023-04-30T01:18:04.073Z,3.50
2023-04-30T01:20:32.464Z,3.37
2023-04-30T01:23:36.587Z,3.70
2023-04-30T01:26:41.014Z,3.37
2023-04-30T01:29:13.086Z,3.47
2023-04-30T01:31:43.533Z,3.87
2023-04-30T01:34:11.331Z,4.10
2023-04-30T01:36:50.425Z,3.63
2023-04-30T01:39:35.453Z,3.70
2023-04-30T01:42:14.228Z,3.80
2023-04-30T01:45:02.520Z,3.97
2023-04-30T01:47:50.889Z,3.63
2023-04-30T01:50:36.687Z,3.47
2023-04-30T01:53:07.374Z,3.80
2023-04-30T01:55:48.334Z,3.73
2023-04-30T01:58:16.685Z,4.07
2023-04-30T02:00:43.666Z,4.07
2023-04-30T02:03:10.909Z,4.13
2023-04-30T02:05:38.025Z,3.77
2023-04-30T02:08:06.217Z,3.63
2023-04-30T02:10:34.069Z,3.70
2023-04-30T02:13:01.247Z,3.57
2023-04-30T02:15:28.379Z,3.70
2023-04-30T02:17:55.352Z,3.83
2023-04-30T02:20:22.506Z,3.50
2023-04-30T02:22:49.607Z,3.80
2023-04-30T02:25:16.754Z,3.77
2023-04-30T02:27:43.872Z,4.20
2023-04-30T02:30:11.206Z,4.23
2023-04-30T02:32:38.300Z,4.20
2023-04-30T02:35:05.735Z,3.80
2023-04-30T02:37:32.781Z,4.07
2023-04-30T02:40:00.058Z,3.83
2023-04-30T02:42:27.152Z,3.53
2023-04-30T02:44:54.213Z,4.00
2023-04-30T02:47:21.468Z,4.07
2023-04-30T02:49:48.567Z,4.20
2023-04-30T02:52:15.857Z,4.27
2023-04-30T02:54:43.094Z,4.63
2023-04-30T02:57:11.895Z,4.87
2023-04-30T02:59:39.701Z,4.53
2023-04-30T03:02:07.214Z,4.17
2023-04-30T03:04:34.324Z,4.17
2023-04-30T03:07:01.372Z,4.50
2023-04-30T03:09:28.439Z,4.67
2023-04-30T03:11:55.520Z,4.57
2023-04-30T03:14:22.608Z,4.27
2023-04-30T03:16:49.794Z,4.40
2023-04-30T03:19:17.649Z,4.43
2023-04-30T03:21:44.785Z,3.67
2023-04-30T03:24:11.861Z,4.00
2023-04-30T03:26:39.378Z,4.30
2023-04-30T03:29:06.381Z,4.00
2023-04-30T03:31:33.421Z,4.40
2023-04-30T03:34:00.557Z,4.13
2023-04-30T03:36:27.599Z,4.37
2023-04-30T03:38:54.848Z,4.27
2023-04-30T03:41:24.373Z,4.30
2023-04-30T03:43:51.453Z,4.20
2023-04-30T03:46:18.659Z,3.90
2023-04-30T03:48:45.740Z,3.90
2023-04-30T03:51:12.803Z,3.97
2023-04-30T03:53:39.884Z,3.97
2023-04-30T03:56:07.604Z,4.13
2023-04-30T03:58:34.599Z,4.33
2023-04-30T04:01:01.622Z,4.70
2023-04-30T04:03:28.798Z,4.17
2023-04-30T04:05:56.286Z,4.47
2023-04-30T04:08:24.181Z,4.30
2023-04-30T04:10:51.340Z,4.30
2023-04-30T04:13:19.005Z,4.27
2023-04-30T04:15:46.069Z,4.30
2023-04-30T04:18:13.102Z,4.40
2023-04-30T04:20:40.461Z,5.70
2023-04-30T04:23:07.524Z,5.67
2023-04-30T04:25:35.310Z,6.00
2023-04-30T04:28:02.411Z,6.50
2023-04-30T04:30:29.541Z,6.63
2023-04-30T04:32:57.748Z,6.63
2023-04-30T04:35:24.932Z,6.13
2023-04-30T04:37:51.929Z,6.47
2023-04-30T04:40:19.117Z,6.80
2023-04-30T04:42:48.632Z,6.43
2023-04-30T04:45:16.341Z,6.70
2023-04-30T04:47:43.680Z,7.33
2023-04-30T04:50:11.346Z,7.03
2023-04-30T04:52:39.216Z,7.20
2023-04-30T04:55:07.284Z,7.33
2023-04-30T04:57:34.360Z,7.70
2023-04-30T05:00:01.480Z,7.83
2023-04-30T05:02:28.752Z,7.50
2023-04-30T05:04:56.325Z,7.67
2023-04-30T05:07:23.363Z,8.13
2023-04-30T05:09:50.381Z,7.53
2023-04-30T05:12:17.472Z,8.13
2023-04-30T05:14:45.264Z,8.33
2023-04-30T05:17:12.488Z,8.00
2023-04-30T05:19:39.554Z,8.03
2023-04-30T05:22:06.655Z,7.80
2023-04-30T05:24:34.260Z,8.40
2023-04-30T05:27:03.023Z,8.63
2023-04-30T05:29:30.224Z,8.23
2023-04-30T05:31:57.411Z,7.97
2023-04-30T05:34:24.472Z,8.03
2023-04-30T05:36:51.550Z,7.77
2023-04-30T05:39:18.734Z,8.50
2023-04-30T05:41:45.878Z,7.77
2023-04-30T05:44:12.882Z,8.13
2023-04-30T05:46:39.943Z,8.00
2023-04-30T05:49:07.347Z,8.40
2023-04-30T05:51:34.455Z,8.70
2023-04-30T05:54:01.574Z,8.40
2023-04-30T05:56:28.936Z,8.50
2023-04-30T05:58:56.161Z,8.50
2023-04-30T06:01:25.841Z,8.17
2023-04-30T06:03:53.042Z,8.40
2023-04-30T06:06:20.020Z,8.77
2023-04-30T06:08:47.587Z,8.03
2023-04-30T06:11:15.440Z,8.80
2023-04-30T06:13:42.613Z,8.73
2023-04-30T06:16:09.968Z,8.87
2023-04-30T06:18:37.141Z,8.80
2023-04-30T06:21:04.411Z,8.60
2023-04-30T06:23:31.605Z,9.10
2023-04-30T06:25:58.797Z,8.40
2023-04-30T06:28:26.039Z,9.60
2023-04-30T06:30:54.528Z,8.80
2023-04-30T06:33:22.131Z,8.37
2023-04-30T06:35:51.307Z,8.27
2023-04-30T06:38:18.511Z,8.67
2023-04-30T06:40:45.724Z,8.23
2023-04-30T06:43:12.757Z,8.10
2023-04-30T06:45:40.484Z,8.60
2023-04-30T06:48:07.867Z,8.10
2023-04-30T06:50:35.152Z,7.83
2023-04-30T06:53:02.994Z,8.27
2023-04-30T06:55:30.036Z,8.07
2023-04-30T06:57:58.115Z,8.27
2023-04-30T07:00:25.547Z,8.03
2023-04-30T07:02:52.785Z,7.47
2023-04-30T07:05:20.098Z,7.53
2023-04-30T07:07:47.231Z,7.90
2023-04-30T07:10:14.498Z,7.57
2023-04-30T07:12:41.543Z,7.70
2023-04-30T07:15:09.053Z,7.10
2023-04-30T07:17:36.634Z,7.00
2023-04-30T07:20:05.080Z,7.00
2023-04-30T07:22:33.082Z,7.30
2023-04-30T07:25:00.829Z,6.53
2023-04-30T07:27:28.426Z,7.03
2023-04-30T07:29:56.276Z,6.60
2023-04-30T07:32:27.228Z,6.43
2023-04-30T07:34:54.431Z,7.00
2023-04-30T07:37:22.128Z,6.97
2023-04-30T07:39:49.282Z,6.10
2023-04-30T07:42:16.660Z,6.60
2023-04-30T07:44:44.017Z,7.30
2023-04-30T07:47:11.333Z,6.13
2023-04-30T07:49:38.475Z,6.30
2023-04-30T07:52:06.094Z,6.40
2023-04-30T07:54:36.524Z,5.93
2023-04-30T07:57:03.879Z,5.50
2023-04-30T07:59:31.263Z,5.70
2023-04-30T08:01:59.150Z,5.70
2023-04-30T08:04:26.536Z,5.70
2023-04-30T08:06:53.601Z,5.80
2023-04-30T08:09:20.901Z,5.73
2023-04-30T08:11:48.082Z,5.40
2023-04-30T08:14:15.130Z,5.80
2023-04-30T08:16:42.634Z,6.13
2023-04-30T08:19:09.770Z,5.50
2023-04-30T08:21:37.007Z,5.60
2023-04-30T08:24:04.197Z,5.47
2023-04-30T08:26:31.297Z,6.27
2023-04-30T08:28:58.458Z,5.53
2023-04-30T08:31:25.820Z,4.87
2023-04-30T08:33:53.037Z,5.03
2023-04-30T08:36:20.459Z,4.90
2023-04-30T08:38:47.666Z,4.30
2023-04-30T08:41:17.673Z,4.20
2023-04-30T08:43:45.305Z,4.20
2023-04-30T08:46:14.115Z,4.27
2023-04-30T08:48:41.732Z,3.93
2023-04-30T08:51:08.904Z,3.60
2023-04-30T08:53:38.376Z,3.60
2023-04-30T08:56:05.905Z,3.50
2023-04-30T08:58:33.092Z,3.70
2023-04-30T09:01:01.418Z,3.50
2023-04-30T09:03:28.854Z,3.43
2023-04-30T09:05:57.195Z,2.97
2023-04-30T09:08:44.918Z,3.00
2023-04-30T09:11:31.702Z,2.90
2023-04-30T09:14:00.659Z,2.97
2023-04-30T09:16:44.808Z,2.50
2023-04-30T09:19:28.256Z,3.03
2023-04-30T09:21:55.856Z,2.60
2023-04-30T09:24:23.991Z,2.60
2023-04-30T09:26:51.785Z,2.80
2023-04-30T09:29:18.853Z,2.63
2023-04-30T09:31:47.585Z,2.57
2023-04-30T09:34:15.540Z,2.70
2023-04-30T09:36:56.564Z,2.77
2023-04-30T09:39:24.226Z,2.57
2023-04-30T09:41:54.595Z,2.30
2023-04-30T09:44:28.824Z,2.70
2023-04-30T09:47:00.423Z,3.13
2023-04-30T09:49:27.972Z,3.10
2023-04-30T09:51:58.787Z,2.70
2023-04-30T09:54:30.717Z,2.90
2023-04-30T09:57:01.884Z,2.70
2023-04-30T09:59:33.037Z,2.57
2023-04-30T10:02:02.687Z,2.93
2023-04-30T10:04:33.528Z,3.30
2023-04-30T10:07:04.786Z,2.97
2023-04-30T10:10:05.293Z,3.00
2023-04-30T10:12:54.587Z,2.40
2023-04-30T10:15:26.666Z,2.50
2023-04-30T10:18:04.340Z,2.70
2023-04-30T10:20:36.523Z,2.80
2023-04-30T10:23:04.836Z,3.10
2023-04-30T10:25:33.025Z,3.23
2023-04-30T10:28:01.999Z,2.80
2023-04-30T10:30:32.074Z,2.50
2023-04-30T10:33:10.843Z,2.47
2023-04-30T10:35:49.157Z,2.67
2023-04-30T10:38:23.359Z,2.67
2023-04-30T10:40:51.259Z,2.80
2023-04-30T10:43:20.134Z,2.17
2023-04-30T10:45:47.359Z,2.47
2023-04-30T10:48:16.990Z,2.30
2023-04-30T10:50:46.201Z,2.10
2023-04-30T10:53:17.573Z,2.50
2023-04-30T10:55:57.584Z,2.28
2023-04-30T10:58:31.252Z,2.38
2023-04-30T11:01:15.529Z,2.50
2023-04-30T11:04:03.875Z,2.20
2023-04-30T11:06:52.746Z,2.50
2023-04-30T11:09:24.406Z,2.13
2023-04-30T11:12:10.004Z,2.05
2023-04-30T11:14:41.694Z,2.00
2023-04-30T11:17:11.309Z,1.85
2023-04-30T11:19:51.427Z,2.10
2023-04-30T11:22:21.513Z,2.10
2023-04-30T11:24:54.648Z,2.10
2023-04-30T11:27:24.313Z,1.92
2023-04-30T11:29:53.115Z,2.05
2023-04-30T11:32:22.040Z,2.10
2023-04-30T11:34:50.049Z,1.70
2023-04-30T11:37:33.386Z,1.80
2023-04-30T11:40:02.883Z,1.70
2023-04-30T11:42:36.610Z,1.70
2023-04-30T11:45:09.117Z,1.60
2023-04-30T11:47:55.238Z,1.77
2023-04-30T11:50:29.348Z,1.70
2023-04-30T11:52:58.983Z,1.77
2023-04-30T11:55:28.570Z,1.60
2023-04-30T11:57:59.402Z,2.00
2023-04-30T12:00:29.494Z,1.90
2023-04-30T12:02:58.094Z,1.90
2023-04-30T12:05:28.096Z,1.73
2023-04-30T12:07:58.116Z,2.03
2023-04-30T12:10:25.981Z,1.80
2023-04-30T12:12:54.848Z,1.50
2023-04-30T12:15:27.127Z,1.60
2023-04-30T12:17:57.229Z,1.42
2023-04-30T12:20:31.101Z,1.40
2023-04-30T12:22:58.790Z,1.60
2023-04-30T12:25:29.601Z,1.80
2023-04-30T12:27:59.520Z,1.58
2023-04-30T12:30:27.621Z,1.50
2023-04-30T12:32:58.126Z,1.50
2023-04-30T12:35:27.864Z,1.60
2023-04-30T12:38:06.133Z,1.30
2023-04-30T12:40:34.436Z,1.30
2023-04-30T12:43:07.497Z,1.60
2023-04-30T12:45:56.504Z,1.60
2023-04-30T12:48:26.137Z,1.20
2023-04-30T12:50:53.332Z,1.30
2023-04-30T12:53:22.016Z,1.50
2023-04-30T12:56:15.413Z,1.70
2023-04-30T12:58:45.686Z,1.48
2023-04-30T13:01:13.950Z,1.70
2023-04-30T13:03:41.534Z,1.38
2023-04-30T13:06:10.670Z,1.20
2023-04-30T13:08:49.808Z,1.30
2023-04-30T13:11:26.700Z,1.33
2023-04-30T13:13:57.579Z,1.40
2023-04-30T13:16:25.428Z,1.30
2023-04-30T13:18:53.084Z,1.10
2023-04-30T13:21:21.320Z,1.20
2023-04-30T13:23:53.757Z,1.25
2023-04-30T13:26:23.606Z,1.30
2023-04-30T13:28:51.237Z,1.20
2023-04-30T13:31:18.670Z,1.33
2023-04-30T13:33:46.045Z,1.35
2023-04-30T13:36:13.265Z,1.13
2023-04-30T13:38:40.591Z,1.30
2023-04-30T13:41:10.539Z,1.60
2023-04-30T13:43:41.425Z,1.20
2023-04-30T13:46:09.593Z,1.50
2023-04-30T13:48:36.895Z,1.38
2023-04-30T13:51:04.030Z,1.15
2023-04-30T13:53:31.140Z,1.13
2023-04-30T13:55:59.421Z,1.20
2023-04-30T13:58:27.303Z,1.15
2023-04-30T14:00:54.416Z,1.10
2023-04-30T14:03:21.872Z,1.13
2023-04-30T14:05:49.144Z,1.30
2023-04-30T14:08:16.678Z,1.10
2023-04-30T14:10:43.950Z,1.23
2023-04-30T14:13:11.153Z,1.20
2023-04-30T14:15:38.748Z,1.30
2023-04-30T14:18:06.069Z,1.10
2023-04-30T14:20:33.461Z,1.23
2023-04-30T14:23:02.752Z,1.00
2023-04-30T14:25:30.231Z,1.10
2023-04-30T14:27:57.408Z,1.10
2023-04-30T14:30:24.770Z,1.10
2023-04-30T14:32:52.080Z,1.17
2023-04-30T14:35:19.276Z,1.10
2023-04-30T14:37:46.330Z,1.10
2023-04-30T14:40:14.040Z,1.30
2023-04-30T14:42:41.112Z,1.20
2023-04-30T14:45:09.153Z,1.00
2023-04-30T14:47:36.500Z,1.20
2023-04-30T14:50:04.380Z,1.08
2023-04-30T14:52:31.637Z,1.20
2023-04-30T14:54:58.773Z,1.10
2023-04-30T14:57:26.059Z,1.17
2023-04-30T14:59:55.237Z,1.08
2023-04-30T15:02:22.716Z,1.25
2023-04-30T15:04:49.902Z,1.08
2023-04-30T15:07:17.096Z,1.20
2023-04-30T15:09:44.816Z,1.20
2023-04-30T15:12:12.023Z,1.20
2023-04-30T15:14:39.320Z,1.23
2023-04-30T15:17:06.956Z,1.20
2023-04-30T15:19:34.062Z,1.25
2023-04-30T15:22:01.299Z,1.20
2023-04-30T15:24:28.492Z,1.20
2023-04-30T15:26:55.636Z,1.08
2023-04-30T15:29:23.618Z,1.08
2023-04-30T15:31:54.462Z,1.50
2023-04-30T15:34:22.874Z,3.45
2023-04-30T15:36:56.571Z,1.20
2023-04-30T15:39:23.689Z,0.98
2023-04-30T15:41:50.903Z,1.00
2023-04-30T15:44:18.087Z,1.17
2023-04-30T15:46:45.150Z,1.23
2023-04-30T15:49:12.313Z,1.20
2023-04-30T15:51:39.386Z,1.10
2023-04-30T15:54:07.456Z,1.10
2023-04-30T15:56:35.827Z,1.13
2023-04-30T15:59:02.981Z,1.23
2023-04-30T16:01:30.337Z,1.13
2023-04-30T16:03:57.808Z,1.15
2023-04-30T16:06:25.087Z,1.10
2023-04-30T16:08:52.748Z,0.90
2023-04-30T16:11:24.711Z,1.08
2023-04-30T16:13:52.261Z,1.17
2023-04-30T16:16:19.791Z,1.13
2023-04-30T16:18:47.062Z,1.10
2023-04-30T16:21:14.412Z,1.20
2023-04-30T16:23:45.485Z,1.50
2023-04-30T16:26:12.891Z,1.10
2023-04-30T16:28:40.152Z,1.00
2023-04-30T16:31:07.483Z,1.17
2023-04-30T16:33:34.636Z,1.13
2023-04-30T16:36:02.268Z,1.10
2023-04-30T16:38:29.541Z,1.20
2023-04-30T16:40:56.802Z,1.30
2023-04-30T16:43:24.380Z,1.13
2023-04-30T16:45:53.015Z,1.05
2023-04-30T16:48:20.664Z,1.10
2023-04-30T16:50:48.253Z,1.20
2023-04-30T16:53:16.019Z,1.02
2023-04-30T16:55:43.912Z,1.10
2023-04-30T16:58:11.522Z,1.10
2023-04-30T17:00:39.520Z,1.30
2023-04-30T17:03:07.163Z,1.27
2023-04-30T17:05:34.801Z,1.30
2023-04-30T17:08:02.058Z,1.30
2023-04-30T17:10:30.440Z,1.20
2023-04-30T17:12:59.609Z,1.25
2023-04-30T17:15:27.253Z,1.30
2023-04-30T17:17:54.684Z,1.30
2023-04-30T17:20:22.040Z,1.27
2023-04-30T17:22:49.771Z,1.40
2023-04-30T17:25:17.317Z,1.08
2023-04-30T17:27:44.854Z,1.15
2023-04-30T17:30:12.318Z,1.10
2023-04-30T17:32:39.794Z,1.17
2023-04-30T17:35:07.538Z,1.13
2023-04-30T17:37:35.481Z,1.33
2023-04-30T17:40:03.472Z,1.10
2023-04-30T17:42:32.416Z,1.00
2023-04-30T17:45:00.987Z,1.10
2023-04-30T17:47:28.416Z,1.10
2023-04-30T17:49:56.200Z,1.08
2023-04-30T17:52:23.879Z,1.10
2023-04-30T17:54:51.110Z,1.10
2023-04-30T17:57:18.308Z,1.17
2023-04-30T17:59:45.569Z,1.35
2023-04-30T18:02:14.948Z,1.48
2023-04-30T18:04:42.076Z,1.30
2023-04-30T18:07:09.610Z,1.20
2023-04-30T18:09:36.885Z,1.00
2023-04-30T18:12:04.066Z,1.08
2023-04-30T18:14:32.206Z,1.33
2023-04-30T18:16:59.641Z,1.23
2023-04-30T18:19:26.882Z,1.20
2023-04-30T18:21:56.177Z,1.30
2023-04-30T18:24:27.990Z,1.20
2023-04-30T18:26:58.917Z,1.15
2023-04-30T18:29:26.953Z,1.30
2023-04-30T18:31:54.024Z,1.10
2023-04-30T18:34:23.576Z,1.20
2023-04-30T18:36:52.437Z,1.20
2023-04-30T18:39:20.419Z,1.20
2023-04-30T18:41:47.968Z,1.20
2023-04-30T18:44:15.461Z,1.05
2023-04-30T18:46:43.059Z,1.10
2023-04-30T18:49:10.616Z,1.05
2023-04-30T18:51:38.098Z,0.98
2023-04-30T18:54:05.490Z,1.10
2023-04-30T18:56:32.996Z,0.85
2023-04-30T18:59:00.376Z,1.30
2023-04-30T19:01:28.419Z,0.90
2023-04-30T19:03:56.127Z,1.00
2023-04-30T19:06:23.639Z,0.90
2023-04-30T19:08:51.397Z,0.90
2023-04-30T19:11:20.191Z,0.98
2023-04-30T19:13:47.515Z,1.10
2023-04-30T19:16:15.174Z,0.90
2023-04-30T19:18:42.614Z,1.20
2023-04-30T19:21:13.075Z,1.10
2023-04-30T19:23:40.414Z,1.10
2023-04-30T19:26:07.821Z,1.00
2023-04-30T19:28:35.210Z,1.05
2023-04-30T19:31:04.149Z,0.98
2023-04-30T19:33:36.939Z,1.10
2023-04-30T19:36:04.628Z,1.00
2023-04-30T19:38:32.047Z,1.00
2023-04-30T19:41:00.884Z,0.95
2023-04-30T19:43:28.128Z,1.10
2023-04-30T19:45:57.655Z,1.23
2023-04-30T19:48:26.860Z,1.30
2023-04-30T19:50:55.156Z,1.10
2023-04-30T19:53:22.737Z,1.17
2023-04-30T19:55:52.095Z,1.30
2023-04-30T19:58:20.103Z,1.20
2023-04-30T20:00:47.450Z,1.10
2023-04-30T20:03:16.471Z,1.15
2023-04-30T20:05:45.245Z,1.35
2023-04-30T20:08:12.560Z,1.50
2023-04-30T20:10:41.227Z,1.50
2023-04-30T20:13:09.591Z,1.30
2023-04-30T20:15:37.359Z,1.20
2023-04-30T20:18:07.923Z,1.30
2023-04-30T20:20:35.234Z,1.40
2023-04-30T20:23:14.789Z,1.33
2023-04-30T20:25:45.255Z,1.10
2023-04-30T20:28:19.300Z,1.35
2023-04-30T20:30:48.069Z,1.30
2023-04-30T20:33:15.746Z,1.20
2023-04-30T20:35:47.504Z,1.40
2023-04-30T20:38:19.673Z,1.35
2023-04-30T20:40:47.423Z,1.47
2023-04-30T20:43:14.783Z,1.50
2023-04-30T20:45:44.646Z,1.50
2023-04-30T20:48:11.932Z,1.67
2023-04-30T20:50:39.595Z,1.37
2023-04-30T20:53:08.345Z,1.77
2023-04-30T20:55:36.996Z,1.70
2023-04-30T20:58:04.319Z,1.50
2023-04-30T21:00:31.854Z,1.60
2023-04-30T21:02:59.415Z,1.60
2023-04-30T21:05:28.867Z,1.50
2023-04-30T21:08:01.304Z,1.70
2023-04-30T21:10:36.464Z,1.63
2023-04-30T21:13:05.503Z,1.60
2023-04-30T21:15:34.624Z,1.80
2023-04-30T21:18:01.832Z,1.83
2023-04-30T21:20:29.156Z,1.60
2023-04-30T21:22:56.636Z,1.77
2023-04-30T21:25:25.805Z,1.67
2023-04-30T21:27:53.158Z,1.57
2023-04-30T21:30:24.237Z,1.60
2023-04-30T21:32:58.288Z,1.60
2023-04-30T21:35:27.600Z,1.73
2023-04-30T21:37:55.044Z,1.70
2023-04-30T21:40:22.226Z,1.80
2023-04-30T21:42:49.328Z,1.70
2023-04-30T21:45:16.828Z,1.50
2023-04-30T21:47:44.818Z,1.60
2023-04-30T21:50:12.400Z,1.83
2023-04-30T21:52:39.496Z,1.70
2023-04-30T21:55:07.838Z,1.67
2023-04-30T21:57:34.892Z,2.17
2023-04-30T22:00:02.143Z,2.00
2023-04-30T22:02:32.643Z,1.80
2023-04-30T22:04:59.890Z,1.63
2023-04-30T22:07:27.447Z,2.00
2023-04-30T22:09:54.673Z,1.87
2023-04-30T22:12:25.069Z,1.80
2023-04-30T22:14:55.809Z,1.90
2023-04-30T22:17:23.363Z,1.80
2023-04-30T22:19:50.527Z,1.80
2023-04-30T22:22:17.710Z,1.57
2023-04-30T22:24:44.783Z,1.90
2023-04-30T22:27:12.124Z,1.60
2023-04-30T22:29:39.283Z,1.90
2023-04-30T22:32:07.332Z,1.93
2023-04-30T22:34:41.114Z,1.63
2023-04-30T22:37:12.180Z,1.70
2023-04-30T22:39:39.603Z,1.77
2023-04-30T22:42:08.497Z,1.70
2023-04-30T22:44:36.619Z,1.70
2023-04-30T22:47:04.102Z,1.90
2023-04-30T22:49:32.375Z,1.83
2023-04-30T22:52:00.336Z,1.83
2023-04-30T22:54:27.410Z,1.80
2023-04-30T22:56:54.521Z,1.73
2023-04-30T22:59:21.776Z,1.70
2023-04-30T23:01:49.411Z,1.80
2023-04-30T23:04:16.728Z,1.90
2023-04-30T23:06:43.902Z,1.80
2023-04-30T23:09:12.544Z,1.80
2023-04-30T23:11:39.662Z,2.10
2023-04-30T23:14:06.766Z,1.90
2023-04-30T23:16:33.828Z,2.17
2023-04-30T23:19:01.064Z,1.90
2023-04-30T23:21:28.111Z,1.73
2023-04-30T23:23:55.390Z,2.10
2023-04-30T23:26:22.884Z,2.10
2023-04-30T23:28:50.034Z,2.00
2023-04-30T23:31:18.220Z,2.00
2023-04-30T23:33:45.278Z,1.90
2023-04-30T23:36:12.386Z,1.87
2023-04-30T23:38:39.396Z,2.20
2023-04-30T23:41:06.362Z,2.13
2023-04-30T23:43:33.438Z,2.00
2023-04-30T23:46:00.633Z,2.33
2023-04-30T23:48:27.822Z,2.30
2023-04-30T23:51:02.165Z,2.10
2023-04-30T23:53:29.758Z,2.30
2023-04-30T23:55:57.972Z,2.30
2023-04-30T23:58:26.002Z,2.30
